Terminal Aerodrome Forecast
Issued by NWS

Home | Current Version | Previous Version | Text Only | Print | Product List | Glossary On
Versions: 1 2 3 4 5 6 7 8 9 10 11 12 13 14 15 16
000
FTAK31 PAJN 231739
TAFASI
TAF
PASI 231739Z 2318/2418 21005KT P6SM OVC050
     FM232100 20005KT P6SM BKN030 OVC050
     FM240000 15010G18KT 3SM -RA BR SCT008 BKN012 OVC030
      TEMPO 2405/2409 BKN008 OVC012
     FM241000 19012KT P6SM -SHRA SCT008 OVC020=

USA.gov is the U.S. government's official web portal to all federal, state and local government web resources and services.